Time;durP1;ratioP1;P1;durP2;ratioP2;P2;SDS_P1;SDS_P2;PMS_P1;PMS_P2;Temp;Humidity;BMP_temperature;BMP_pressure;BME280_temperature;BME280_humidity;BME280_pressure;Samples;Min_cycle;Max_cycle;Signal;HPM_P1;HPM_P2
2023/08/13 00:00:08;;;;;;;3.80;3.38;;;;;;;27.00;71.08;101155.66;4903495;29;20060;-78
2023/08/13 00:02:36;;;;;;;5.85;3.42;;;;;;;26.82;72.10;101155.34;4923555;29;20052;-94
2023/08/13 00:05:04;;;;;;;4.50;3.75;;;;;;;26.65;72.82;101151.09;4901446;29;20060;-94
2023/08/13 00:07:33;;;;;;;3.80;3.40;;;;;;;26.65;72.94;101157.53;4888332;29;20051;-95
2023/08/13 00:10:04;;;;;;;4.32;3.65;;;;;;;26.52;73.57;101158.91;4896048;29;20048;-95
2023/08/13 00:12:32;;;;;;;4.28;3.50;;;;;;;26.58;73.93;101159.41;4893412;29;20055;-94
2023/08/13 00:15:01;;;;;;;3.83;3.38;;;;;;;26.56;73.91;101155.00;4904243;29;20054;-94
2023/08/13 00:17:30;;;;;;;4.40;3.95;;;;;;;26.64;73.52;101155.09;4935883;29;20039;-94
2023/08/13 00:19:58;;;;;;;3.30;3.08;;;;;;;26.56;73.71;101157.81;4919933;29;20407;-95
2023/08/13 00:22:27;;;;;;;3.70;3.40;;;;;;;26.38;74.48;101160.31;4919933;29;20164;-94
2023/08/13 00:24:55;;;;;;;3.75;3.45;;;;;;;26.18;75.02;101151.13;4904227;29;20059;-95
2023/08/13 00:27:23;;;;;;;3.78;3.47;;;;;;;26.02;76.40;101145.63;4919976;29;20050;-94
2023/08/13 00:29:51;;;;;;;5.15;3.72;;;;;;;26.32;75.22;101150.59;4919792;29;20056;-94
2023/08/13 00:32:19;;;;;;;3.58;3.28;;;;;;;26.45;75.03;101153.19;4919428;29;20051;-95
2023/08/13 00:34:47;;;;;;;3.78;3.47;;;;;;;26.41;75.32;101153.13;4919489;29;20048;-94
2023/08/13 00:37:16;;;;;;;4.70;3.47;;;;;;;26.44;75.11;101157.97;4919545;29;20491;-94
2023/08/13 00:39:44;;;;;;;4.40;3.40;;;;;;;26.38;75.59;101153.88;4920061;29;20058;-96
2023/08/13 00:42:13;;;;;;;6.80;3.95;;;;;;;26.38;75.63;101142.66;4919799;29;20044;-95
2023/08/13 00:44:42;;;;;;;4.10;3.70;;;;;;;26.22;76.39;101149.19;4921691;29;20402;-95
2023/08/13 00:47:10;;;;;;;4.97;3.72;;;;;;;26.10;76.40;101152.19;4918163;29;20048;-95
2023/08/13 00:49:39;;;;;;;5.80;3.45;;;;;;;26.14;76.66;101144.63;4885750;29;20052;-95
2023/08/13 00:52:08;;;;;;;6.45;3.65;;;;;;;26.22;76.81;101151.19;4885293;29;20060;-95
2023/08/13 00:54:37;;;;;;;3.72;3.35;;;;;;;26.26;76.27;101147.31;4901673;29;20048;-94
2023/08/13 00:57:06;;;;;;;8.95;3.85;;;;;;;26.22;76.68;101146.41;4919057;29;20040;-96
2023/08/13 00:59:35;;;;;;;6.38;3.85;;;;;;;26.20;77.36;101143.13;4912474;29;20044;-95
2023/08/13 01:02:03;;;;;;;4.30;3.90;;;;;;;26.26;76.60;101135.25;4918027;29;20048;-95
2023/08/13 01:04:31;;;;;;;5.03;3.97;;;;;;;26.18;77.01;101142.72;4900694;29;20048;-96
2023/08/13 01:07:25;;;;;;;5.38;3.70;;;;;;;26.02;77.81;101132.44;4920390;29;20502;-94
2023/08/13 01:10:04;;;;;;;6.00;4.05;;;;;;;26.11;77.15;101139.78;4908452;29;20056;-93
2023/08/13 01:13:00;;;;;;;5.57;3.80;;;;;;;26.08;78.21;101143.31;4941308;29;20487;-94
2023/08/13 01:15:32;;;;;;;5.88;3.72;;;;;;;26.02;78.34;101138.06;4918486;29;20060;-96
2023/08/13 01:18:02;;;;;;;6.20;3.67;;;;;;;26.00;78.21;101139.59;4922890;29;20059;-93
2023/08/13 01:20:36;;;;;;;7.35;4.00;;;;;;;25.98;78.49;101137.16;4923448;29;20047;-92
2023/08/13 01:23:04;;;;;;;5.45;3.95;;;;;;;25.87;78.93;101138.97;4922992;29;20043;-95
2023/08/13 01:25:33;;;;;;;4.60;4.13;;;;;;;25.91;79.06;101134.25;4923007;29;20411;-95
2023/08/13 01:28:08;;;;;;;4.65;4.15;;;;;;;25.99;78.49;101126.75;4914034;29;20055;-91
2023/08/13 01:30:46;;;;;;;;;;;;;;;25.92;78.85;101138.66;4905824;29;20067;-95
2023/08/13 01:33:19;;;;;;;4.43;4.03;;;;;;;26.01;78.37;101147.63;4908679;29;19923;-96
2023/08/13 01:35:48;;;;;;;5.03;4.53;;;;;;;26.03;78.32;101136.03;4907221;29;20051;-94
2023/08/13 01:38:16;;;;;;;5.57;3.92;;;;;;;25.80;79.36;101139.63;4898838;29;20121;-93
2023/08/13 01:40:48;;;;;;;4.50;4.10;;;;;;;25.76;79.77;101133.16;4913241;29;20078;-96
2023/08/13 01:43:17;;;;;;;6.18;4.22;;;;;;;25.62;80.11;101140.09;4937663;29;20059;-93
2023/08/13 01:45:45;;;;;;;5.90;4.28;;;;;;;25.79;79.51;101131.63;4922176;29;20047;-93
2023/08/13 01:48:13;;;;;;;4.50;4.10;;;;;;;25.90;78.98;101133.41;4921702;29;20048;-93
2023/08/13 01:50:41;;;;;;;4.45;4.03;;;;;;;25.94;78.67;101136.28;4922001;29;20498;-92
2023/08/13 01:53:09;;;;;;;4.70;4.30;;;;;;;25.90;78.96;101130.63;4903280;29;20530;-93
2023/08/13 01:55:37;;;;;;;4.72;4.32;;;;;;;25.72;79.61;101141.47;4911902;29;20052;-95
2023/08/13 01:58:07;;;;;;;4.53;4.13;;;;;;;25.83;79.31;101133.28;4922524;29;20054;-95
2023/08/13 02:00:36;;;;;;;4.68;4.15;;;;;;;25.73;79.27;101131.09;4906546;29;20055;-93
2023/08/13 02:03:04;;;;;;;4.20;3.90;;;;;;;25.73;79.54;101139.50;4937564;29;20040;-94
2023/08/13 02:05:32;;;;;;;4.50;4.10;;;;;;;25.73;79.66;101142.31;4906223;29;20073;-94
2023/08/13 02:08:00;;;;;;;4.15;3.75;;;;;;;25.77;79.69;101141.19;4906901;29;20060;-93
2023/08/13 02:10:28;;;;;;;5.38;3.85;;;;;;;25.69;79.38;101141.41;4921740;29;20058;-94
2023/08/13 02:12:59;;;;;;;4.50;4.10;;;;;;;25.66;79.79;101142.97;4937099;29;20055;-95
2023/08/13 02:15:27;;;;;;;4.53;4.13;;;;;;;25.66;79.91;101137.38;4906496;29;20402;-95
2023/08/13 02:17:57;;;;;;;8.23;4.03;;;;;;;25.69;79.73;101136.63;4921711;29;20035;-94
2023/08/13 02:20:25;;;;;;;4.45;3.90;;;;;;;25.47;80.69;101130.56;4906313;29;20078;-95
2023/08/13 02:22:53;;;;;;;4.65;3.72;;;;;;;25.52;80.77;101137.06;4907178;29;20051;-94
2023/08/13 02:25:21;;;;;;;5.18;3.90;;;;;;;25.66;80.15;101131.75;4922126;29;20055;-95
2023/08/13 02:27:50;;;;;;;4.95;4.15;;;;;;;25.67;80.09;101127.81;4918348;29;20040;-95
2023/08/13 02:30:18;;;;;;;4.45;4.05;;;;;;;25.60;80.54;101127.63;4902366;29;20060;-95
2023/08/13 02:32:46;;;;;;;6.63;4.30;;;;;;;25.65;79.76;101135.75;4902507;29;20048;-95
2023/08/13 02:35:15;;;;;;;4.35;3.95;;;;;;;25.50;80.55;101124.25;4903686;29;20072;-94
2023/08/13 02:37:43;;;;;;;4.30;3.90;;;;;;;25.54;80.78;101134.72;4905321;29;20300;-96
2023/08/13 02:40:11;;;;;;;6.75;4.43;;;;;;;25.35;81.33;101122.31;4906102;29;20415;-96
2023/08/13 02:42:39;;;;;;;6.82;4.03;;;;;;;25.34;81.22;101120.72;4918638;29;20059;-94
2023/08/13 02:45:07;;;;;;;4.28;3.97;;;;;;;25.19;81.99;101123.22;4902135;29;20530;-94
2023/08/13 02:47:35;;;;;;;4.40;4.00;;;;;;;25.29;82.09;101118.19;4903049;29;20060;-94
2023/08/13 02:50:04;;;;;;;4.15;3.83;;;;;;;25.41;81.48;101120.06;4905301;29;20058;-94
2023/08/13 02:52:32;;;;;;;5.80;4.72;;;;;;;25.27;81.97;101114.97;4936749;29;20048;-94
2023/08/13 02:55:01;;;;;;;4.47;4.05;;;;;;;25.42;81.56;101111.25;4905749;29;20051;-94
2023/08/13 02:57:29;;;;;;;4.53;4.13;;;;;;;25.50;81.20;101106.63;4920715;29;20050;-92
2023/08/13 02:59:57;;;;;;;5.97;4.00;;;;;;;25.43;81.89;101110.09;4928555;29;20040;-95
2023/08/13 03:02:25;;;;;;;4.30;4.00;;;;;;;25.34;81.71;101109.50;4921175;29;20607;-93
2023/08/13 03:04:53;;;;;;;4.13;3.80;;;;;;;25.25;82.69;101094.91;4921453;29;20047;-94
2023/08/13 03:07:21;;;;;;;5.20;4.70;;;;;;;25.20;82.73;101094.03;4920976;29;20067;-94
2023/08/13 03:09:49;;;;;;;5.45;4.55;;;;;;;25.17;83.04;101086.34;4917658;29;20048;-94
2023/08/13 03:12:17;;;;;;;4.75;4.35;;;;;;;25.19;82.51;101098.03;4917358;29;20056;-95
2023/08/13 03:14:46;;;;;;;4.65;4.10;;;;;;;25.31;82.30;101087.84;4901785;29;20052;-95
2023/08/13 03:17:15;;;;;;;5.20;4.10;;;;;;;25.30;82.23;101095.44;4901429;29;20067;-92
2023/08/13 03:19:44;;;;;;;4.63;4.15;;;;;;;25.12;82.72;101089.44;4901483;29;20071;-93
2023/08/13 03:22:12;;;;;;;5.40;4.43;;;;;;;25.06;82.97;101082.53;4917407;29;20051;-93
2023/08/13 03:24:41;;;;;;;5.03;4.57;;;;;;;25.02;83.73;101082.44;4919228;29;20052;-94
2023/08/13 03:27:10;;;;;;;4.57;4.18;;;;;;;25.01;83.84;101080.84;4920423;29;20043;-92
2023/08/13 03:29:39;;;;;;;7.15;5.00;;;;;;;25.12;83.10;101071.84;4919394;29;20044;-93
2023/08/13 03:32:10;;;;;;;5.15;4.70;;;;;;;25.17;82.75;101083.56;4935763;29;20036;-93
2023/08/13 03:34:38;;;;;;;5.47;4.60;;;;;;;25.18;83.00;101075.97;4904679;29;20067;-94
2023/08/13 03:37:06;;;;;;;5.80;5.22;;;;;;;25.09;82.79;101084.59;4916787;29;20052;-93
2023/08/13 03:39:36;;;;;;;5.82;5.25;;;;;;;25.12;82.81;101086.66;4916215;29;20040;-95
2023/08/13 03:42:04;;;;;;;5.38;4.88;;;;;;;25.12;82.76;101077.47;4896924;29;20058;-93
2023/08/13 03:44:33;;;;;;;7.22;5.13;;;;;;;25.07;82.76;101090.56;4902952;29;20066;-95
2023/08/13 03:47:01;;;;;;;5.30;4.80;;;;;;;25.14;83.01;101089.91;4917143;29;20048;-95
2023/08/13 03:49:29;;;;;;;6.28;5.03;;;;;;;25.01;83.06;101092.03;4897471;29;20044;-95
2023/08/13 03:51:59;;;;;;;6.03;5.43;;;;;;;24.96;83.64;101079.16;4937292;29;20044;-95
2023/08/13 03:54:28;;;;;;;5.88;5.30;;;;;;;25.03;83.22;101083.28;4917323;29;20052;-94
2023/08/13 03:56:56;;;;;;;5.95;5.28;;;;;;;25.08;82.56;101080.19;4900738;29;20055;-93
2023/08/13 03:59:24;;;;;;;7.03;5.68;;;;;;;25.11;82.71;101078.66;4895324;29;20048;-95
2023/08/13 04:01:52;;;;;;;6.25;5.20;;;;;;;25.08;82.93;101080.19;4919688;29;20044;-93
2023/08/13 04:04:23;;;;;;;7.30;5.63;;;;;;;24.99;82.60;101082.38;4903503;29;20055;-92
2023/08/13 04:06:52;;;;;;;6.10;5.50;;;;;;;25.00;82.88;101084.00;4904435;29;20495;-93
2023/08/13 04:09:20;;;;;;;7.55;6.00;;;;;;;24.64;85.14;101076.41;4903958;29;20048;-93
2023/08/13 04:11:49;;;;;;;7.28;5.95;;;;;;;24.67;84.74;101075.69;4920146;29;20055;-93
2023/08/13 04:14:17;;;;;;;6.43;5.60;;;;;;;24.80;83.86;101076.38;4920593;29;20068;-93
2023/08/13 04:16:46;;;;;;;6.20;5.32;;;;;;;24.93;83.13;101077.06;4937660;29;20040;-92
2023/08/13 04:19:17;;;;;;;7.18;5.95;;;;;;;24.89;83.42;101075.38;4934213;29;20052;-95
2023/08/13 04:21:45;;;;;;;5.88;5.38;;;;;;;24.74;84.19;101077.84;4900039;29;20060;-94
2023/08/13 04:24:13;;;;;;;5.72;5.15;;;;;;;24.69;84.64;101075.34;4916377;29;20056;-95
2023/08/13 04:26:41;;;;;;;7.63;6.63;;;;;;;24.63;85.06;101083.19;4918603;29;20048;-83
2023/08/13 04:29:12;;;;;;;5.60;5.10;;;;;;;24.46;85.80;101076.00;4920555;29;20379;-96
2023/08/13 04:31:41;;;;;;;6.15;5.55;;;;;;;24.49;85.98;101080.06;4901023;29;20048;-95
2023/08/13 04:34:10;;;;;;;7.43;5.70;;;;;;;24.77;85.01;101073.47;4885525;29;20052;-96
2023/08/13 04:36:38;;;;;;;6.03;5.43;;;;;;;24.90;83.92;101072.22;4886506;29;20052;-95
2023/08/13 04:39:10;;;;;;;6.43;5.82;;;;;;;24.81;85.07;101077.22;4894821;23;20049;-94
2023/08/13 04:41:40;;;;;;;6.22;5.63;;;;;;;24.80;85.15;101072.75;4880780;29;20053;-92
2023/08/13 04:44:09;;;;;;;6.47;5.88;;;;;;;24.83;84.88;101069.28;4897289;29;20057;-94
2023/08/13 04:46:38;;;;;;;6.40;5.80;;;;;;;24.99;84.36;101077.59;4896892;29;20045;-92
2023/08/13 04:49:06;;;;;;;6.88;5.60;;;;;;;25.05;83.96;101080.91;4881269;29;20059;-94
2023/08/13 04:51:34;;;;;;;7.00;6.28;;;;;;;25.02;83.61;101085.25;4897024;29;20052;-93
2023/08/13 04:54:04;;;;;;;5.85;5.35;;;;;;;25.05;83.50;101073.34;4881546;29;20060;-94
2023/08/13 04:56:32;;;;;;;6.13;5.53;;;;;;;25.05;83.93;101076.13;4912209;29;20052;-92
2023/08/13 04:59:03;;;;;;;8.07;6.28;;;;;;;24.91;84.77;101085.03;4912385;29;20048;-93
2023/08/13 05:01:33;;;;;;;7.00;6.30;;;;;;;24.94;85.76;101081.50;4913336;29;20388;-95
2023/08/13 05:04:02;;;;;;;6.32;5.72;;;;;;;24.87;86.19;101081.34;4897894;29;20055;-94
2023/08/13 05:06:34;;;;;;;7.97;6.63;;;;;;;25.02;85.32;101081.66;4883238;29;20057;-96
2023/08/13 05:09:02;;;;;;;7.63;6.95;;;;;;;25.04;85.21;101082.09;4871921;29;20412;-96
2023/08/13 05:11:31;;;;;;;6.25;5.63;;;;;;;25.17;84.93;101088.38;4897564;29;20061;-88
2023/08/13 05:13:59;;;;;;;8.65;6.25;;;;;;;25.32;84.52;101095.88;4895627;29;20518;-91
2023/08/13 05:16:27;;;;;;;8.63;6.15;;;;;;;25.22;84.62;101086.06;4881154;29;20407;-93
2023/08/13 05:18:56;;;;;;;6.80;6.15;;;;;;;25.39;83.16;101094.38;4912048;29;20045;-94
2023/08/13 05:21:25;;;;;;;7.32;6.15;;;;;;;25.25;84.32;101084.53;4895963;29;20060;-92
2023/08/13 05:23:54;;;;;;;6.85;6.15;;;;;;;25.29;83.81;101090.19;4896895;29;20053;-93
2023/08/13 05:26:22;;;;;;;6.45;5.68;;;;;;;25.30;83.88;101083.41;4881009;29;20110;-95
2023/08/13 05:28:50;;;;;;;6.35;5.75;;;;;;;25.40;83.16;101096.81;4897107;29;20060;-92
2023/08/13 05:31:18;;;;;;;6.93;6.22;;;;;;;25.43;83.19;101090.50;4896414;29;20052;-95
2023/08/13 05:33:46;;;;;;;10.10;6.63;;;;;;;25.41;83.39;101095.63;4881585;29;20048;-92
2023/08/13 05:36:15;;;;;;;7.45;6.28;;;;;;;25.39;83.36;101095.22;4881886;29;20049;-94
2023/08/13 05:38:43;;;;;;;7.13;5.72;;;;;;;25.53;82.80;101093.84;4897740;29;20060;-95
2023/08/13 05:41:11;;;;;;;7.50;6.70;;;;;;;25.65;83.23;101096.50;4897498;29;20044;-93
2023/08/13 05:43:39;;;;;;;8.02;6.40;;;;;;;25.65;83.43;101096.50;4866067;29;20056;-94
2023/08/13 05:46:07;;;;;;;7.35;6.60;;;;;;;25.65;83.84;101096.50;4912212;29;20060;-94
2023/08/13 05:48:36;;;;;;;7.50;6.57;;;;;;;25.79;83.37;101106.41;4881320;29;20064;-95
2023/08/13 05:51:04;;;;;;;7.28;6.55;;;;;;;25.94;82.19;101107.47;4865118;29;20052;-93
2023/08/13 05:53:32;;;;;;;8.07;5.93;;;;;;;25.98;82.98;101109.13;4896770;29;20053;-94
2023/08/13 05:56:01;;;;;;;6.90;6.20;;;;;;;26.06;82.32;101110.06;4923645;23;20029;-82
2023/08/13 05:58:31;;;;;;;6.25;5.65;;;;;;;25.90;81.61;101115.78;4888925;29;20060;-96
2023/08/13 06:01:00;;;;;;;6.90;6.20;;;;;;;25.93;82.34;101120.66;4903765;29;20072;-92
2023/08/13 06:03:28;;;;;;;6.63;5.63;;;;;;;25.83;81.31;101129.66;4898124;29;20064;-94
2023/08/13 06:05:57;;;;;;;6.65;5.03;;;;;;;25.72;81.83;101130.28;4866674;29;20076;-93
2023/08/13 06:08:25;;;;;;;6.72;5.50;;;;;;;25.68;81.21;101129.41;4862516;29;20053;-92
2023/08/13 06:10:54;;;;;;;6.38;5.30;;;;;;;25.86;80.66;101124.13;4901255;29;20049;-93
2023/08/13 06:13:22;;;;;;;6.35;5.70;;;;;;;25.83;83.13;101129.66;4851979;29;20064;-96
2023/08/13 06:15:51;;;;;;;7.68;5.82;;;;;;;25.99;82.71;101133.19;4882444;29;20053;-94
2023/08/13 06:18:24;;;;;;;6.80;6.20;;;;;;;26.09;82.95;101134.53;4887235;29;20052;-96
2023/08/13 06:21:45;;;;;;;6.68;6.07;;;;;;;26.27;81.56;101137.69;4919724;29;20028;-76
2023/08/13 06:24:20;;;;;;;7.25;6.45;;;;;;;26.26;82.31;101124.03;4920477;23;20057;-79
2023/08/13 06:27:15;;;;;;;5.88;5.38;;;;;;;26.39;80.28;101136.69;4916173;29;20056;-79
2023/08/13 06:29:45;;;;;;;6.18;5.43;;;;;;;26.53;79.32;101138.91;4910386;29;20048;-90
2023/08/13 06:32:34;;;;;;;5.40;4.90;;;;;;;26.61;76.90;101145.44;4937237;29;20043;-96
2023/08/13 06:35:08;;;;;;;5.80;5.30;;;;;;;26.70;76.20;101142.38;4907120;29;20044;-96
2023/08/13 06:37:37;;;;;;;7.75;5.68;;;;;;;26.78;76.93;101138.47;4892441;29;20060;-90
2023/08/13 06:40:27;;;;;;;6.00;5.43;;;;;;;26.86;76.02;101135.75;4891522;29;20052;-88
2023/08/13 06:43:24;;;;;;;6.20;5.55;;;;;;;26.97;74.25;101142.34;4923492;29;20044;-96
2023/08/13 06:46:04;;;;;;;6.30;5.40;;;;;;;26.94;74.04;101137.53;4912604;29;20056;-95
2023/08/13 06:48:38;;;;;;;6.30;5.80;;;;;;;26.95;73.82;101139.97;4923177;29;20047;-94
2023/08/13 06:51:48;;;;;;;7.75;6.03;;;;;;;27.10;74.68;101137.31;4908078;29;20040;-76
2023/08/13 06:54:47;;;;;;;5.85;5.32;;;;;;;27.23;73.31;101140.72;4915115;29;20055;-93
2023/08/13 06:58:18;;;;;;;6.03;5.43;;;;;;;27.24;74.32;101137.50;4896403;29;20052;-92
2023/08/13 07:02:20;;;;;;;6.45;5.78;;;;;;;27.37;73.19;101143.69;4905574;29;20055;-86
2023/08/13 07:05:29;;;;;;;9.18;5.65;;;;;;;27.35;72.78;101143.28;4893705;29;20049;-92
2023/08/13 07:08:22;;;;;;;7.68;5.50;;;;;;;27.49;71.78;101141.81;4929914;29;20045;-92
2023/08/13 07:11:20;;;;;;;7.32;6.00;;;;;;;27.50;71.37;101149.03;4920457;29;20049;-88
2023/08/13 07:14:21;;;;;;;6.30;5.68;;;;;;;27.48;70.29;101145.81;4905273;29;20049;-85
2023/08/13 07:17:15;;;;;;;7.20;5.55;;;;;;;27.60;71.05;101150.38;4904372;29;20053;-95
2023/08/13 07:19:58;;;;;;;5.97;5.30;;;;;;;27.76;70.77;101150.19;4912768;29;20060;-83
2023/08/13 07:22:28;;;;;;;5.55;4.97;;;;;;;27.87;70.08;101153.88;4897751;29;20071;-82
2023/08/13 07:24:59;;;;;;;5.22;4.72;;;;;;;27.94;70.61;101155.19;4889124;29;20079;-86
2023/08/13 07:27:28;;;;;;;6.97;5.55;;;;;;;27.87;69.00;101151.06;4898751;29;20086;-94
2023/08/13 07:29:57;;;;;;;5.22;4.72;;;;;;;28.07;68.64;101153.69;4904402;29;20044;-95
2023/08/13 07:32:36;;;;;;;5.97;5.18;;;;;;;28.08;68.50;101148.84;4890192;29;20060;-86
2023/08/13 07:35:08;;;;;;;5.65;4.75;;;;;;;28.10;68.50;101152.13;4905392;29;20055;-92
2023/08/13 07:37:37;;;;;;;5.70;5.10;;;;;;;28.15;67.68;101138.47;4904238;29;20419;-86
2023/08/13 07:40:11;;;;;;;6.95;5.60;;;;;;;28.22;67.73;101136.94;4902332;29;20041;-87
2023/08/13 07:42:40;;;;;;;5.97;5.10;;;;;;;28.24;67.69;101137.41;4894109;29;20380;-84
2023/08/13 07:45:10;;;;;;;4.95;4.53;;;;;;;28.35;68.04;101141.06;4906521;29;20412;-85
2023/08/13 07:47:39;;;;;;;5.88;4.45;;;;;;;28.41;67.60;101145.19;4925558;29;20400;-88
2023/08/13 07:50:09;;;;;;;5.28;4.78;;;;;;;28.42;66.27;101143.97;4885963;29;20424;-87
2023/08/13 07:52:37;;;;;;;5.97;4.78;;;;;;;28.56;66.24;101150.91;4896353;29;20056;-88
2023/08/13 07:55:06;;;;;;;4.90;4.50;;;;;;;28.65;65.56;101154.19;4884794;29;20052;-85
2023/08/13 07:57:35;;;;;;;5.07;4.63;;;;;;;28.69;65.85;101146.56;4883834;29;20056;-87
2023/08/13 08:00:07;;;;;;;5.72;4.47;;;;;;;28.77;64.41;101155.03;4886216;29;20044;-87
2023/08/13 08:02:39;;;;;;;6.18;4.50;;;;;;;28.77;63.03;101160.69;4883937;29;20056;-87
2023/08/13 08:05:12;;;;;;;5.20;4.70;;;;;;;28.85;63.20;101156.72;4896647;29;20053;-89
2023/08/13 08:07:41;;;;;;;4.40;4.00;;;;;;;28.95;63.51;101152.38;4908482;29;20060;-87
2023/08/13 08:10:09;;;;;;;4.60;4.20;;;;;;;28.97;61.60;101152.78;4926545;29;20056;-89
2023/08/13 08:12:38;;;;;;;4.20;3.80;;;;;;;28.91;61.59;101157.19;4923092;29;20045;-87
2023/08/13 08:15:07;;;;;;;5.80;4.72;;;;;;;28.98;62.79;101145.94;4885716;29;20062;-95
2023/08/13 08:17:40;;;;;;;5.97;4.07;;;;;;;29.08;63.93;101155.69;4893452;29;20064;-87
2023/08/13 08:20:10;;;;;;;5.88;4.38;;;;;;;29.16;62.04;101164.94;4893404;29;20053;-90
2023/08/13 08:22:42;;;;;;;5.88;4.68;;;;;;;29.16;62.81;101153.69;4881923;29;20067;-89
2023/08/13 08:25:11;;;;;;;5.60;4.70;;;;;;;29.06;63.25;101156.06;4909329;29;20052;-88
2023/08/13 08:27:42;;;;;;;5.45;4.22;;;;;;;29.14;62.92;101142.81;4899100;29;20048;-85
2023/08/13 08:30:12;;;;;;;5.93;4.30;;;;;;;29.20;61.76;101135.59;4881527;29;20052;-87
2023/08/13 08:32:41;;;;;;;6.57;4.28;;;;;;;29.30;61.09;101148.13;4924919;29;20048;-92
2023/08/13 08:35:09;;;;;;;4.60;4.20;;;;;;;29.23;60.81;101148.88;4886664;29;20072;-89
2023/08/13 08:37:38;;;;;;;6.32;4.88;;;;;;;29.26;61.49;101147.28;4907534;29;20049;-89
2023/08/13 08:40:07;;;;;;;5.53;4.95;;;;;;;29.32;62.16;101144.91;4921148;29;20053;-88
2023/08/13 08:42:37;;;;;;;5.20;4.70;;;;;;;29.33;60.67;101152.16;4914556;29;20068;-84
2023/08/13 08:45:08;;;;;;;5.47;4.97;;;;;;;29.20;61.51;101155.31;4899942;29;20437;-88
2023/08/13 08:47:40;;;;;;;7.20;4.65;;;;;;;29.21;62.35;101145.66;4909582;29;20419;-88
2023/08/13 08:50:12;;;;;;;4.78;4.35;;;;;;;29.41;61.32;101142.50;4900796;29;20044;-92
2023/08/13 08:52:42;;;;;;;5.80;4.80;;;;;;;29.42;61.18;101148.97;4896303;29;20049;-87
2023/08/13 08:55:13;;;;;;;4.97;4.50;;;;;;;29.50;61.10;101144.97;4904021;29;20055;-89
2023/08/13 08:57:42;;;;;;;5.13;4.63;;;;;;;29.68;60.85;101147.88;4909347;29;20041;-88
2023/08/13 09:00:10;;;;;;;5.75;5.15;;;;;;;29.67;60.76;101146.25;4897446;29;20391;-85
2023/08/13 09:02:41;;;;;;;4.53;4.13;;;;;;;29.71;60.74;101147.06;4895121;29;20045;-93
2023/08/13 09:05:11;;;;;;;5.95;4.63;;;;;;;29.89;60.25;101143.47;4910133;29;20052;-87
2023/08/13 09:07:43;;;;;;;8.75;4.55;;;;;;;29.84;59.94;101141.03;4888869;29;20127;-86
2023/08/13 09:10:11;;;;;;;5.03;4.47;;;;;;;29.90;60.20;101136.59;4900122;29;20071;-92
2023/08/13 09:12:41;;;;;;;5.20;4.70;;;;;;;29.90;60.39;101143.06;4925389;29;20053;-88
2023/08/13 09:15:12;;;;;;;7.47;4.57;;;;;;;29.93;61.46;101138.63;4894914;29;20055;-92
2023/08/13 09:17:41;;;;;;;4.95;4.45;;;;;;;30.08;60.70;101136.63;4916044;29;20049;-89
2023/08/13 09:20:17;;;;;;;6.18;4.85;;;;;;;30.15;59.31;101138.69;4888727;29;20048;-93
2023/08/13 09:22:47;;;;;;;6.15;4.72;;;;;;;30.18;59.78;101137.88;4896233;29;20048;-91
2023/08/13 09:25:19;;;;;;;7.45;5.03;;;;;;;30.22;61.12;101129.41;4894667;29;20037;-96
2023/08/13 09:27:48;;;;;;;5.75;5.25;;;;;;;30.24;61.09;101129.81;4888458;29;20059;-88
2023/08/13 09:30:28;;;;;;;6.03;4.43;;;;;;;30.49;60.04;101126.94;4917407;29;20048;-82
2023/08/13 09:32:58;;;;;;;5.22;4.72;;;;;;;30.38;58.28;101137.44;4892958;29;20051;-84
2023/08/13 09:35:27;;;;;;;6.80;4.50;;;;;;;30.44;58.35;101119.72;4902961;29;20048;-88
2023/08/13 09:37:57;;;;;;;5.55;4.63;;;;;;;30.51;58.11;101118.09;4894678;29;20056;-83
2023/08/13 09:40:25;;;;;;;5.07;4.47;;;;;;;30.64;57.20;101127.72;4892460;29;20052;-89
2023/08/13 09:43:09;;;;;;;4.88;4.47;;;;;;;30.71;58.26;101115.66;4890142;29;20396;-88
2023/08/13 09:45:37;;;;;;;6.07;4.70;;;;;;;30.69;58.17;101110.41;4897183;29;20064;-84
2023/08/13 09:48:06;;;;;;;5.63;4.60;;;;;;;30.77;57.63;101116.84;4899462;29;20056;-88
2023/08/13 09:50:41;;;;;;;4.90;4.50;;;;;;;30.70;56.92;101122.53;4930650;29;20067;-83
2023/08/13 09:53:14;;;;;;;5.80;4.47;;;;;;;30.77;56.48;101116.03;4882941;29;20049;-83
2023/08/13 09:55:50;;;;;;;4.75;4.30;;;;;;;30.78;56.25;101107.16;4900234;29;20059;-88
2023/08/13 09:58:19;;;;;;;6.30;3.95;;;;;;;30.64;56.91;101107.19;4917137;29;20213;-94
2023/08/13 10:00:49;;;;;;;4.80;4.32;;;;;;;30.79;56.66;101116.44;4890758;29;20079;-91
2023/08/13 10:03:18;;;;;;;4.90;4.20;;;;;;;30.90;56.07;101114.41;4916594;29;20067;-85
2023/08/13 10:05:48;;;;;;;4.55;4.13;;;;;;;30.92;54.86;101116.78;4903095;29;20062;-95
2023/08/13 10:08:18;;;;;;;3.80;3.50;;;;;;;30.94;55.92;101109.50;4915331;29;20048;-95
2023/08/13 10:10:48;;;;;;;4.38;4.05;;;;;;;30.99;53.21;101113.97;4902394;29;20056;-95
2023/08/13 10:13:19;;;;;;;4.43;4.03;;;;;;;31.06;54.68;101108.28;4901380;29;20079;-96
2023/08/13 10:15:49;;;;;;;4.55;3.95;;;;;;;31.10;53.67;101094.94;4891358;29;20519;-95
2023/08/13 10:18:22;;;;;;;5.25;4.05;;;;;;;31.09;54.87;101095.34;4894994;29;20053;-91
2023/08/13 10:20:50;;;;;;;4.50;3.70;;;;;;;31.21;53.22;101094.06;4886715;29;20049;-90
2023/08/13 10:23:19;;;;;;;4.40;3.92;;;;;;;31.32;52.88;101088.41;4903602;29;20044;-90
2023/08/13 10:25:52;;;;;;;4.07;3.78;;;;;;;31.38;53.20;101090.38;4917608;29;20095;-86
2023/08/13 10:28:27;;;;;;;4.57;4.00;;;;;;;31.39;53.32;101085.53;4919713;29;20052;-94
2023/08/13 10:31:29;;;;;;;3.78;3.47;;;;;;;31.46;53.65;101093.13;4899411;29;20045;-87
2023/08/13 10:34:04;;;;;;;4.18;3.80;;;;;;;31.57;52.90;101093.09;4885815;29;20059;-90
2023/08/13 10:36:51;;;;;;;4.78;3.83;;;;;;;31.55;52.23;101085.00;4930886;29;20079;-89
2023/08/13 10:39:32;;;;;;;4.03;3.65;;;;;;;31.72;51.82;101090.97;4900635;29;20400;-88
2023/08/13 10:42:03;;;;;;;4.13;3.78;;;;;;;31.60;51.80;101087.41;4915171;29;20055;-91
2023/08/13 10:44:39;;;;;;;4.10;3.70;;;;;;;31.63;50.08;101078.09;4930597;29;20075;-92
2023/08/13 10:47:07;;;;;;;4.38;3.97;;;;;;;31.73;51.14;101079.25;4901954;29;20044;-93
2023/08/13 10:49:40;;;;;;;3.97;3.67;;;;;;;31.81;50.82;101077.13;4923322;29;20032;-89
2023/08/13 10:52:09;;;;;;;5.72;4.28;;;;;;;31.99;51.34;101068.53;4910588;29;20048;-96
2023/08/13 10:54:39;;;;;;;4.15;3.72;;;;;;;32.15;51.65;101075.66;4908496;29;20060;-87
2023/08/13 10:57:12;;;;;;;4.13;3.72;;;;;;;32.18;50.66;101077.66;4908817;29;20381;-86
2023/08/13 11:00:17;;;;;;;4.13;3.72;;;;;;;32.04;51.07;101076.59;4898162;29;20067;-95
2023/08/13 11:02:57;;;;;;;5.30;3.30;;;;;;;32.18;50.23;101070.00;4911273;29;20045;-92
2023/08/13 11:05:28;;;;;;;3.80;3.50;;;;;;;32.31;49.87;101066.63;4892322;29;20044;-95
2023/08/13 11:07:59;;;;;;;3.78;3.47;;;;;;;32.40;48.70;101064.13;4905680;29;20380;-87
2023/08/13 11:10:29;;;;;;;6.20;3.70;;;;;;;32.37;50.26;101064.94;4920297;29;20048;-91
2023/08/13 11:13:00;;;;;;;3.75;3.38;;;;;;;32.40;48.07;101069.78;4919619;29;20123;-92
2023/08/13 11:15:29;;;;;;;4.20;3.38;;;;;;;32.44;48.91;101064.91;4922166;29;20396;-86
2023/08/13 11:17:58;;;;;;;3.75;3.45;;;;;;;32.37;48.61;101059.28;4898060;29;20067;-87
2023/08/13 11:20:26;;;;;;;4.18;3.45;;;;;;;32.49;48.22;101060.78;4897415;29;20432;-94
2023/08/13 11:22:54;;;;;;;4.50;3.20;;;;;;;32.60;47.58;101060.69;4929421;29;20042;-85
2023/08/13 11:25:26;;;;;;;3.88;3.58;;;;;;;32.54;48.14;101063.16;4914356;29;20518;-86
2023/08/13 11:27:54;;;;;;;3.40;3.10;;;;;;;32.63;47.05;101051.34;4898986;29;20060;-90
2023/08/13 11:30:24;;;;;;;4.97;3.50;;;;;;;32.46;47.29;101056.00;4896051;29;20395;-88
2023/08/13 11:32:52;;;;;;;3.70;3.40;;;;;;;32.69;47.49;101052.47;4898286;29;20170;-92
2023/08/13 11:35:24;;;;;;;3.95;3.10;;;;;;;32.74;47.84;101047.56;4928460;29;20053;-91
2023/08/13 11:37:56;;;;;;;3.50;3.20;;;;;;;32.71;45.63;101055.69;4910703;29;20056;-86
2023/08/13 11:40:28;;;;;;;3.60;3.28;;;;;;;32.76;45.37;101045.94;4918686;29;20048;-95
2023/08/13 11:43:15;;;;;;;3.47;3.28;;;;;;;32.66;45.42;101044.84;4868169;29;20051;-89
2023/08/13 11:46:00;;;;;;;3.83;3.47;;;;;;;32.81;46.55;101053.16;4895968;29;20060;-90